createdAt,value
2018-09-02T00:01:35.839Z,2.30
2018-09-02T00:04:04.050Z,1.70
2018-09-02T00:06:32.510Z,2.13
2018-09-02T00:09:00.787Z,1.60
2018-09-02T00:11:29.162Z,2.83
2018-09-02T00:13:57.340Z,2.47
2018-09-02T00:16:25.648Z,1.80
2018-09-02T00:18:53.851Z,1.90
2018-09-02T00:21:22.060Z,2.07
2018-09-02T00:23:50.310Z,1.90
2018-09-02T00:26:18.497Z,2.17
2018-09-02T00:28:46.676Z,2.10
2018-09-02T00:31:14.974Z,1.83
2018-09-02T00:33:43.208Z,2.00
2018-09-02T00:36:11.384Z,2.10
2018-09-02T00:38:39.584Z,1.97
2018-09-02T00:41:07.797Z,1.90
2018-09-02T00:43:35.999Z,2.40
2018-09-02T00:46:04.235Z,2.40
2018-09-02T00:48:32.487Z,1.83
2018-09-02T00:51:00.888Z,2.20
2018-09-02T00:53:29.265Z,2.13
2018-09-02T00:55:57.459Z,2.03
2018-09-02T00:58:25.851Z,2.00
2018-09-02T01:00:54.037Z,2.07
2018-09-02T01:03:22.403Z,2.10
2018-09-02T01:05:51.340Z,1.80
2018-09-02T01:08:19.567Z,2.17
2018-09-02T01:10:48.841Z,1.90
2018-09-02T01:13:17.365Z,1.83
2018-09-02T01:15:46.887Z,2.10
2018-09-02T01:18:15.343Z,2.10
2018-09-02T01:20:43.543Z,1.70
2018-09-02T01:23:11.833Z,1.77
2018-09-02T01:25:40.716Z,2.40
2018-09-02T01:28:09.353Z,2.13
2018-09-02T01:30:38.219Z,1.90
2018-09-02T01:33:06.423Z,1.90
2018-09-02T01:35:35.147Z,1.70
2018-09-02T01:38:05.028Z,2.03
2018-09-02T01:40:34.227Z,1.90
2018-09-02T01:43:02.948Z,2.00
2018-09-02T01:45:31.298Z,2.00
2018-09-02T01:47:59.496Z,1.90
2018-09-02T01:50:27.916Z,2.37
2018-09-02T01:52:56.098Z,2.00
2018-09-02T01:55:24.448Z,1.70
2018-09-02T01:57:52.759Z,1.83
2018-09-02T02:00:20.942Z,2.20
2018-09-02T02:02:49.963Z,2.17
2018-09-02T02:05:18.164Z,1.77
2018-09-02T02:07:46.369Z,1.90
2018-09-02T02:10:14.736Z,1.90
2018-09-02T02:12:43.031Z,2.03
2018-09-02T02:15:11.420Z,2.57
2018-09-02T02:17:39.992Z,2.33
2018-09-02T02:20:08.283Z,1.67
2018-09-02T02:22:36.791Z,1.70
2018-09-02T02:25:05.020Z,1.80
2018-09-02T02:27:33.212Z,1.87
2018-09-02T02:30:01.657Z,1.83
2018-09-02T02:32:29.852Z,2.10
2018-09-02T02:34:58.240Z,2.40
2018-09-02T02:37:26.431Z,1.93
2018-09-02T02:39:55.015Z,2.17
2018-09-02T02:42:23.208Z,2.20
2018-09-02T02:44:51.406Z,1.57
2018-09-02T02:47:19.740Z,1.70
2018-09-02T02:49:48.008Z,1.87
2018-09-02T02:52:16.671Z,1.73
2018-09-02T02:54:44.944Z,2.27
2018-09-02T02:57:13.156Z,1.90
2018-09-02T02:59:41.532Z,2.10
2018-09-02T03:02:09.828Z,1.93
2018-09-02T03:04:40.609Z,2.20
2018-09-02T03:07:09.099Z,1.50
2018-09-02T03:09:37.308Z,1.83
2018-09-02T03:12:05.577Z,2.07
2018-09-02T03:14:33.818Z,2.10
2018-09-02T03:17:02.041Z,1.87
2018-09-02T03:19:30.247Z,1.40
2018-09-02T03:21:58.480Z,1.50
2018-09-02T03:24:26.663Z,2.23
2018-09-02T03:26:54.951Z,1.70
2018-09-02T03:29:23.151Z,2.30
2018-09-02T03:31:51.365Z,1.30
2018-09-02T03:34:19.645Z,1.30
2018-09-02T03:36:48.006Z,1.50
2018-09-02T03:39:16.201Z,1.70
2018-09-02T03:41:44.438Z,1.70
2018-09-02T03:44:12.632Z,2.20
2018-09-02T03:46:40.820Z,1.87
2018-09-02T03:49:09.053Z,1.40
2018-09-02T03:51:37.309Z,1.63
2018-09-02T03:54:06.208Z,2.20
2018-09-02T03:56:34.679Z,1.80
2018-09-02T03:59:02.916Z,1.83
2018-09-02T04:01:31.272Z,1.17
2018-09-02T04:03:59.454Z,1.80
2018-09-02T04:06:27.641Z,1.90
2018-09-02T04:08:55.831Z,2.00
2018-09-02T04:11:24.118Z,2.07
2018-09-02T04:13:52.234Z,1.60
2018-09-02T04:16:20.407Z,1.80
2018-09-02T04:18:48.622Z,1.60
2018-09-02T04:21:16.907Z,1.60
2018-09-02T04:23:45.164Z,1.70
2018-09-02T04:26:13.348Z,1.77
2018-09-02T04:28:41.568Z,1.73
2018-09-02T04:31:09.743Z,1.80
2018-09-02T04:33:37.997Z,1.73
2018-09-02T04:36:06.223Z,1.60
2018-09-02T04:38:34.451Z,1.90
2018-09-02T04:41:02.652Z,1.40
2018-09-02T04:43:30.888Z,1.67
2018-09-02T04:45:59.093Z,1.70
2018-09-02T04:48:27.308Z,1.80
2018-09-02T04:50:55.508Z,1.47
2018-09-02T04:53:23.726Z,1.60
2018-09-02T04:55:51.935Z,1.80
2018-09-02T04:58:20.156Z,1.70
2018-09-02T05:00:48.356Z,1.57
2018-09-02T05:03:16.575Z,1.70
2018-09-02T05:05:44.784Z,1.83
2018-09-02T05:08:13.172Z,1.60
2018-09-02T05:10:41.371Z,1.60
2018-09-02T05:13:09.955Z,1.93
2018-09-02T05:15:38.344Z,1.70
2018-09-02T05:18:06.539Z,1.60
2018-09-02T05:20:34.733Z,1.70
2018-09-02T05:23:03.112Z,1.63
2018-09-02T05:25:31.340Z,1.40
2018-09-02T05:27:59.525Z,1.27
2018-09-02T05:30:28.179Z,1.80
2018-09-02T05:32:56.453Z,1.70
2018-09-02T05:35:24.639Z,2.23
2018-09-02T05:37:53.252Z,2.30
2018-09-02T05:40:21.456Z,2.23
2018-09-02T05:42:50.135Z,2.30
2018-09-02T05:45:18.448Z,2.13
2018-09-02T05:47:46.649Z,2.50
2018-09-02T05:50:15.107Z,2.80
2018-09-02T05:52:43.481Z,2.10
2018-09-02T05:55:12.096Z,2.87
2018-09-02T05:57:40.326Z,3.77
2018-09-02T06:00:08.516Z,3.43
2018-09-02T06:02:37.385Z,2.93
2018-09-02T06:05:05.568Z,3.10
2018-09-02T06:07:33.808Z,3.37
2018-09-02T06:10:02.239Z,3.53
2018-09-02T06:12:30.531Z,3.37
2018-09-02T06:14:58.748Z,3.60
2018-09-02T06:17:27.054Z,3.43
2018-09-02T06:19:55.168Z,3.77
2018-09-02T06:22:23.363Z,3.80
2018-09-02T06:24:51.573Z,3.57
2018-09-02T06:27:19.783Z,4.53
2018-09-02T06:29:48.032Z,3.73
2018-09-02T06:32:16.228Z,4.27
2018-09-02T06:34:44.420Z,4.33
2018-09-02T06:37:12.708Z,4.77
2018-09-02T06:39:40.981Z,4.63
2018-09-02T06:42:09.104Z,4.67
2018-09-02T06:44:37.337Z,4.63
2018-09-02T06:47:05.559Z,5.50
2018-09-02T06:49:33.756Z,5.20
2018-09-02T06:52:02.844Z,4.00
2018-09-02T06:54:31.120Z,4.17
2018-09-02T06:56:59.346Z,4.60
2018-09-02T06:59:27.539Z,4.23
2018-09-02T07:01:55.761Z,4.97
2018-09-02T07:04:23.964Z,4.33
2018-09-02T07:06:52.291Z,4.40
2018-09-02T07:09:20.476Z,4.30
2018-09-02T07:11:48.724Z,4.20
2018-09-02T07:14:17.226Z,4.40
2018-09-02T07:16:45.383Z,4.33
2018-09-02T07:19:13.600Z,4.30
2018-09-02T07:21:41.951Z,3.63
2018-09-02T07:24:10.167Z,3.63
2018-09-02T07:26:38.645Z,3.27
2018-09-02T07:29:06.879Z,3.30
2018-09-02T07:31:35.099Z,4.27
2018-09-02T07:34:03.288Z,3.80
2018-09-02T07:36:31.500Z,3.40
2018-09-02T07:38:59.779Z,3.37
2018-09-02T07:41:27.984Z,3.40
2018-09-02T07:43:56.346Z,2.90
2018-09-02T07:46:24.512Z,3.40
2018-09-02T07:48:52.720Z,3.17
2018-09-02T07:51:20.952Z,2.90
2018-09-02T07:53:49.154Z,3.37
2018-09-02T07:56:17.539Z,4.13
2018-09-02T07:58:45.761Z,3.80
2018-09-02T08:01:14.004Z,3.70
2018-09-02T08:03:42.204Z,3.60
2018-09-02T08:06:10.396Z,3.07
2018-09-02T08:08:38.615Z,3.60
2018-09-02T08:11:06.847Z,3.70
2018-09-02T08:13:35.077Z,3.60
2018-09-02T08:16:03.319Z,3.50
2018-09-02T08:18:31.555Z,3.17
2018-09-02T08:21:00.421Z,4.00
2018-09-02T08:23:28.613Z,4.10
2018-09-02T08:25:56.831Z,4.40
2018-09-02T08:28:25.031Z,3.97
2018-09-02T08:30:53.296Z,3.77
2018-09-02T08:33:21.488Z,4.27
2018-09-02T08:35:49.760Z,3.77
2018-09-02T08:38:17.980Z,4.57
2018-09-02T08:40:46.201Z,3.87
2018-09-02T08:43:14.391Z,3.17
2018-09-02T08:45:42.616Z,3.80
2018-09-02T08:48:10.844Z,3.83
2018-09-02T08:50:39.044Z,3.93
2018-09-02T08:53:07.256Z,3.80
2018-09-02T08:55:35.455Z,3.97
2018-09-02T08:58:03.672Z,4.80
2018-09-02T09:00:31.919Z,3.90
2018-09-02T09:03:00.164Z,3.93
2018-09-02T09:05:28.359Z,3.43
2018-09-02T09:07:56.616Z,3.90
2018-09-02T09:10:24.744Z,3.57
2018-09-02T09:12:53.067Z,4.07
2018-09-02T09:15:21.260Z,4.23
2018-09-02T09:17:49.472Z,4.30
2018-09-02T09:20:17.655Z,4.50
2018-09-02T09:22:45.930Z,5.30
2018-09-02T09:25:14.235Z,4.50
2018-09-02T09:27:42.451Z,3.83
2018-09-02T09:30:10.904Z,3.80
2018-09-02T09:32:39.733Z,4.43
2018-09-02T09:35:07.980Z,4.43
2018-09-02T09:37:36.293Z,4.33
2018-09-02T09:40:04.520Z,4.93
2018-09-02T09:42:32.824Z,4.60
2018-09-02T09:45:01.056Z,4.83
2018-09-02T09:47:29.271Z,5.80
2018-09-02T09:49:57.523Z,11.17
2018-09-02T09:52:25.744Z,9.80
2018-09-02T09:54:53.964Z,8.30
2018-09-02T09:57:22.172Z,5.50
2018-09-02T09:59:50.405Z,4.60
2018-09-02T10:02:18.620Z,5.40
2018-09-02T10:04:46.845Z,5.07
2018-09-02T10:07:15.081Z,4.93
2018-09-02T10:09:43.296Z,4.63
2018-09-02T10:12:11.549Z,5.13
2018-09-02T10:14:39.765Z,4.93
2018-09-02T10:17:07.991Z,5.00
2018-09-02T10:19:36.213Z,5.00
2018-09-02T10:22:04.461Z,5.70
2018-09-02T10:24:32.711Z,5.27
2018-09-02T10:27:00.955Z,5.23
2018-09-02T10:29:29.272Z,5.33
2018-09-02T10:31:57.473Z,5.50
2018-09-02T10:34:25.727Z,5.83
2018-09-02T10:36:53.947Z,4.53
2018-09-02T10:39:22.252Z,4.30
2018-09-02T10:41:51.339Z,4.50
2018-09-02T10:44:19.531Z,5.43
2018-09-02T10:46:47.760Z,5.10
2018-09-02T10:49:15.972Z,4.43
2018-09-02T10:51:44.184Z,3.90
2018-09-02T10:54:12.819Z,3.77
2018-09-02T10:56:41.056Z,3.67
2018-09-02T10:59:09.265Z,3.07
2018-09-02T11:01:37.864Z,2.97
2018-09-02T11:04:06.259Z,2.73
2018-09-02T11:06:34.503Z,2.60
2018-09-02T11:09:03.815Z,2.73
2018-09-02T11:11:32.073Z,2.87
2018-09-02T11:14:00.725Z,3.10
2018-09-02T11:16:29.436Z,3.30
2018-09-02T11:18:57.644Z,2.60
2018-09-02T11:21:26.211Z,2.33
2018-09-02T11:23:54.495Z,2.57
2018-09-02T11:26:23.186Z,2.70
2018-09-02T11:28:51.415Z,2.43
2018-09-02T11:31:19.667Z,2.60
2018-09-02T11:33:48.068Z,2.90
2018-09-02T11:36:16.274Z,2.70
2018-09-02T11:38:44.529Z,2.80
2018-09-02T11:41:13.556Z,2.70
2018-09-02T11:43:41.759Z,2.80
2018-09-02T11:46:09.952Z,2.93
2018-09-02T11:48:38.303Z,2.17
2018-09-02T11:51:06.655Z,2.10
2018-09-02T11:53:35.205Z,2.17
2018-09-02T11:56:03.422Z,2.20
2018-09-02T11:58:31.731Z,2.10
2018-09-02T12:01:00.383Z,2.27
2018-09-02T12:03:28.589Z,2.53
2018-09-02T12:05:56.784Z,2.57
2018-09-02T12:08:25.139Z,2.50
2018-09-02T12:10:53.364Z,2.30
2018-09-02T12:13:22.068Z,2.40
2018-09-02T12:15:50.282Z,2.23
2018-09-02T12:18:18.487Z,2.80
2018-09-02T12:20:46.883Z,2.83
2018-09-02T12:23:15.218Z,2.67
2018-09-02T12:25:43.569Z,2.90
2018-09-02T12:28:12.148Z,3.13
2018-09-02T12:30:40.335Z,3.10
2018-09-02T12:33:08.560Z,3.20
2018-09-02T12:35:37.028Z,3.37
2018-09-02T12:38:05.232Z,3.13
2018-09-02T12:40:33.631Z,3.53
2018-09-02T12:43:02.220Z,3.57
2018-09-02T12:45:30.619Z,3.60
2018-09-02T12:47:59.129Z,3.40
2018-09-02T12:50:27.238Z,3.97
2018-09-02T12:52:55.956Z,3.97
2018-09-02T12:55:24.194Z,4.13
2018-09-02T12:57:52.359Z,3.77
2018-09-02T13:00:20.770Z,4.30
2018-09-02T13:02:48.999Z,4.50
2018-09-02T13:05:17.519Z,3.60
2018-09-02T13:07:45.799Z,4.23
2018-09-02T13:10:14.009Z,4.17
2018-09-02T13:12:42.560Z,4.47
2018-09-02T13:15:10.764Z,4.50
2018-09-02T13:17:39.023Z,4.50
2018-09-02T13:20:07.460Z,4.60
2018-09-02T13:22:35.672Z,5.00
2018-09-02T13:25:04.307Z,5.60
2018-09-02T13:27:32.676Z,4.43
2018-09-02T13:30:01.085Z,5.07
2018-09-02T13:32:29.295Z,4.77
2018-09-02T13:34:57.805Z,5.40
2018-09-02T13:37:26.008Z,5.47
2018-09-02T13:39:54.285Z,5.20
2018-09-02T13:42:22.712Z,5.03
2018-09-02T13:44:51.092Z,5.07
2018-09-02T13:47:19.332Z,5.47
2018-09-02T13:49:47.544Z,5.55
2018-09-02T13:52:15.764Z,5.00
2018-09-02T13:54:44.057Z,4.80
2018-09-02T13:57:12.187Z,5.40
2018-09-02T13:59:40.501Z,5.80
2018-09-02T14:02:08.684Z,7.83
2018-09-02T14:04:36.880Z,12.40
2018-09-02T14:07:05.136Z,13.10
2018-09-02T14:09:33.433Z,7.90
2018-09-02T14:12:01.622Z,7.53
2018-09-02T14:14:30.168Z,5.93
2018-09-02T14:16:58.501Z,5.63
2018-09-02T14:19:26.711Z,5.07
2018-09-02T14:21:54.911Z,6.53
2018-09-02T14:24:23.153Z,4.77
2018-09-02T14:26:51.364Z,5.23
2018-09-02T14:29:19.608Z,4.93
2018-09-02T14:31:47.919Z,4.97
2018-09-02T14:34:16.092Z,5.60
2018-09-02T14:36:44.356Z,5.50
2018-09-02T14:39:13.888Z,5.40
2018-09-02T14:41:42.416Z,5.87
2018-09-02T14:44:10.636Z,5.70
2018-09-02T14:46:39.453Z,5.60
2018-09-02T14:49:08.167Z,5.53
2018-09-02T14:51:36.400Z,4.90
2018-09-02T14:54:04.673Z,6.00
2018-09-02T14:56:32.970Z,5.77
2018-09-02T14:59:01.230Z,11.20
2018-09-02T15:01:35.954Z,5.37
2018-09-02T15:04:04.188Z,21.00
2018-09-02T15:06:32.856Z,24.63
2018-09-02T15:09:01.179Z,7.77
2018-09-02T15:11:29.459Z,9.73
2018-09-02T15:13:57.652Z,9.13
2018-09-02T15:16:25.907Z,7.00
2018-09-02T15:18:54.108Z,5.53
2018-09-02T15:21:22.522Z,8.70
2018-09-02T15:23:50.629Z,8.60
2018-09-02T15:26:18.884Z,11.60
2018-09-02T15:28:47.096Z,7.13
2018-09-02T15:31:15.353Z,7.20
2018-09-02T15:33:43.600Z,7.07
2018-09-02T15:36:11.844Z,7.43
2018-09-02T15:38:40.820Z,7.27
2018-09-02T15:41:09.075Z,7.90
2018-09-02T15:43:37.308Z,7.70
2018-09-02T15:46:05.597Z,7.87
2018-09-02T15:48:33.851Z,7.80
2018-09-02T15:51:02.172Z,7.83
2018-09-02T15:53:30.380Z,8.30
2018-09-02T15:55:58.640Z,8.50
2018-09-02T15:58:26.856Z,8.33
2018-09-02T16:00:55.185Z,8.80
2018-09-02T16:03:23.455Z,9.40
2018-09-02T16:05:51.676Z,7.97
2018-09-02T16:08:19.875Z,9.10
2018-09-02T16:10:48.145Z,9.80
2018-09-02T16:13:16.463Z,8.63
2018-09-02T16:15:44.752Z,9.37
2018-09-02T16:18:12.962Z,9.10
2018-09-02T16:20:41.284Z,7.50
2018-09-02T16:23:09.479Z,8.47
2018-09-02T16:25:37.704Z,8.37
2018-09-02T16:28:06.000Z,9.10
2018-09-02T16:30:34.200Z,8.50
2018-09-02T16:33:02.442Z,9.07
2018-09-02T16:35:30.657Z,9.10
2018-09-02T16:37:59.050Z,8.63
2018-09-02T16:40:27.251Z,8.80
2018-09-02T16:42:55.478Z,8.77
2018-09-02T16:45:23.764Z,8.77
2018-09-02T16:47:52.002Z,8.93
2018-09-02T16:50:20.201Z,8.10
2018-09-02T16:52:48.529Z,8.87
2018-09-02T16:55:16.688Z,8.47
2018-09-02T16:57:44.902Z,8.40
2018-09-02T17:00:13.140Z,8.67
2018-09-02T17:02:41.346Z,8.57
2018-09-02T17:05:12.400Z,8.57
2018-09-02T17:07:40.630Z,9.63
2018-09-02T17:10:08.885Z,9.37
2018-09-02T17:12:37.280Z,9.20
2018-09-02T17:15:05.388Z,9.23
2018-09-02T17:17:33.664Z,9.80
2018-09-02T17:20:01.912Z,8.97
2018-09-02T17:22:30.189Z,9.83
2018-09-02T17:24:58.442Z,11.03
2018-09-02T17:27:26.695Z,10.23
2018-09-02T17:29:54.940Z,11.97
2018-09-02T17:32:24.044Z,12.23
2018-09-02T17:34:52.349Z,13.07
2018-09-02T17:37:20.628Z,10.53
2018-09-02T17:39:48.844Z,10.60
2018-09-02T17:42:17.224Z,11.27
2018-09-02T17:44:46.044Z,11.50
2018-09-02T17:47:14.256Z,11.30
2018-09-02T17:49:42.528Z,11.30
2018-09-02T17:52:10.901Z,11.50
2018-09-02T17:54:39.120Z,11.73
2018-09-02T17:57:07.593Z,11.17
2018-09-02T17:59:36.176Z,11.37
2018-09-02T18:02:04.472Z,12.70
2018-09-02T18:04:32.709Z,12.60
2018-09-02T18:07:01.141Z,12.40
2018-09-02T18:09:29.384Z,12.03
2018-09-02T18:11:57.876Z,12.47
2018-09-02T18:14:26.197Z,11.60
2018-09-02T18:16:54.416Z,12.50
2018-09-02T18:19:22.897Z,12.23
2018-09-02T18:21:51.093Z,12.03
2018-09-02T18:24:19.366Z,12.73
2018-09-02T18:26:47.772Z,12.97
2018-09-02T18:29:15.963Z,12.70
2018-09-02T18:31:44.168Z,12.63
2018-09-02T18:34:12.527Z,12.83
2018-09-02T18:36:40.750Z,12.80
2018-09-02T18:39:10.617Z,12.73
2018-09-02T18:41:38.857Z,11.70
2018-09-02T18:44:07.200Z,12.27
2018-09-02T18:46:35.894Z,12.30
2018-09-02T18:49:04.888Z,12.27
2018-09-02T18:51:33.316Z,11.77
2018-09-02T18:54:01.551Z,12.37
2018-09-02T18:56:29.812Z,13.20
2018-09-02T18:58:58.263Z,12.47
2018-09-02T19:01:26.492Z,12.97
2018-09-02T19:03:54.696Z,13.77
2018-09-02T19:06:23.151Z,12.97
2018-09-02T19:08:51.355Z,13.33
2018-09-02T19:11:19.796Z,12.43
2018-09-02T19:13:48.003Z,11.93
2018-09-02T19:16:16.763Z,12.53
2018-09-02T19:18:45.144Z,13.77
2018-09-02T19:21:13.369Z,12.57
2018-09-02T19:23:41.920Z,12.43
2018-09-02T19:26:10.097Z,13.77
2018-09-02T19:28:38.308Z,13.90
2018-09-02T19:31:06.520Z,14.17
2018-09-02T19:33:34.816Z,14.50
2018-09-02T19:36:03.156Z,13.80
2018-09-02T19:38:31.498Z,14.27
2018-09-02T19:40:59.740Z,13.83
2018-09-02T19:43:27.968Z,14.50
2018-09-02T19:45:56.230Z,13.80
2018-09-02T19:48:24.445Z,13.57
2018-09-02T19:50:52.647Z,13.80
2018-09-02T19:53:20.925Z,14.90
2018-09-02T19:55:49.134Z,17.67
2018-09-02T19:58:17.396Z,20.27
2018-09-02T20:00:45.612Z,28.57
2018-09-02T20:03:13.812Z,30.97
2018-09-02T20:05:42.005Z,37.27
2018-09-02T20:08:10.246Z,41.83
2018-09-02T20:10:38.448Z,42.37
2018-09-02T20:13:06.712Z,36.73
2018-09-02T20:15:35.042Z,37.03
2018-09-02T20:18:03.299Z,31.50
2018-09-02T20:20:31.545Z,30.20
2018-09-02T20:22:59.852Z,22.47
2018-09-02T20:25:28.091Z,23.83
2018-09-02T20:27:56.377Z,23.07
2018-09-02T20:30:24.644Z,23.40
2018-09-02T20:32:52.877Z,19.27
2018-09-02T20:35:21.128Z,18.00
2018-09-02T20:37:49.332Z,14.87
2018-09-02T20:40:17.535Z,15.07
2018-09-02T20:42:45.771Z,15.50
2018-09-02T20:45:14.028Z,14.47
2018-09-02T20:47:42.256Z,14.23
2018-09-02T20:50:10.468Z,14.83
2018-09-02T20:52:39.004Z,14.47
2018-09-02T20:55:07.323Z,14.50
2018-09-02T20:57:35.547Z,14.23
2018-09-02T21:00:03.816Z,13.73
2018-09-02T21:02:32.305Z,14.47
2018-09-02T21:05:01.151Z,14.67
2018-09-02T21:07:29.579Z,13.87
2018-09-02T21:09:57.776Z,13.77
2018-09-02T21:12:25.990Z,14.27
2018-09-02T21:14:54.201Z,14.90
2018-09-02T21:17:22.459Z,14.83
2018-09-02T21:19:50.728Z,14.63
2018-09-02T21:22:18.919Z,15.50
2018-09-02T21:24:47.160Z,14.70
2018-09-02T21:27:15.354Z,14.90
2018-09-02T21:29:43.559Z,15.23
2018-09-02T21:32:11.772Z,14.70
2018-09-02T21:34:39.987Z,15.40
2018-09-02T21:37:08.263Z,14.73
2018-09-02T21:39:36.385Z,14.80
2018-09-02T21:42:04.696Z,14.03
2018-09-02T21:44:33.270Z,15.33
2018-09-02T21:47:01.524Z,16.27
2018-09-02T21:49:29.724Z,16.20
2018-09-02T21:51:58.321Z,15.70
2018-09-02T21:54:26.820Z,15.57
2018-09-02T21:56:55.016Z,16.13
2018-09-02T21:59:23.228Z,15.47
2018-09-02T22:01:51.743Z,15.80
2018-09-02T22:04:20.031Z,15.93
2018-09-02T22:06:48.238Z,16.33
2018-09-02T22:09:17.635Z,16.07
2018-09-02T22:11:45.883Z,16.43
2018-09-02T22:14:14.628Z,17.10
2018-09-02T22:16:43.483Z,17.90
2018-09-02T22:19:11.701Z,17.23
2018-09-02T22:21:40.315Z,17.93
2018-09-02T22:24:08.512Z,17.03
2018-09-02T22:26:36.773Z,18.17
2018-09-02T22:29:05.208Z,18.37
2018-09-02T22:31:33.764Z,18.97
2018-09-02T22:34:01.960Z,18.40
2018-09-02T22:36:30.568Z,18.60
2018-09-02T22:38:58.783Z,18.93
2018-09-02T22:41:26.980Z,19.50
2018-09-02T22:43:55.920Z,19.03
2018-09-02T22:46:24.112Z,18.77
2018-09-02T22:48:52.316Z,19.10
2018-09-02T22:51:20.903Z,20.50
2018-09-02T22:53:49.111Z,19.23
2018-09-02T22:56:17.323Z,18.73
2018-09-02T22:58:45.776Z,20.03
2018-09-02T23:01:14.810Z,19.23
2018-09-02T23:03:43.024Z,18.57
2018-09-02T23:06:11.371Z,19.87
2018-09-02T23:08:39.556Z,20.23
2018-09-02T23:11:08.038Z,19.73
2018-09-02T23:13:36.247Z,20.33
2018-09-02T23:16:04.472Z,19.67
2018-09-02T23:18:32.831Z,19.67
2018-09-02T23:21:01.052Z,20.10
2018-09-02T23:23:29.583Z,19.93
2018-09-02T23:25:57.792Z,19.53
2018-09-02T23:28:25.992Z,19.37
2018-09-02T23:30:54.554Z,19.87
2018-09-02T23:33:22.803Z,19.70
2018-09-02T23:35:51.000Z,20.80
2018-09-02T23:38:19.503Z,20.33
2018-09-02T23:40:47.715Z,19.47
2018-09-02T23:43:16.134Z,20.73
2018-09-02T23:45:44.716Z,21.03
2018-09-02T23:48:13.083Z,21.57
2018-09-02T23:50:41.330Z,19.87
2018-09-02T23:53:09.528Z,21.30
2018-09-02T23:55:38.150Z,21.00
2018-09-02T23:58:06.756Z,20.17
